sensor_id;sensor_type;location;lat;lon;timestamp;temperature;humidity
85830;DHT22;76277;49.212;16.680;2024-02-15T00:00:33;8.07;77.62
85830;DHT22;76277;49.212;16.680;2024-02-15T00:03:17;8.07;77.62
85830;DHT22;76277;49.212;16.680;2024-02-15T00:06:02;8.07;77.62
85830;DHT22;76277;49.212;16.680;2024-02-15T00:08:47;7.99;77.56
85830;DHT22;76277;49.212;16.680;2024-02-15T00:11:31;7.99;77.56
85830;DHT22;76277;49.212;16.680;2024-02-15T00:14:16;7.99;77.56
85830;DHT22;76277;49.212;16.680;2024-02-15T00:17:01;7.99;77.56
85830;DHT22;76277;49.212;16.680;2024-02-15T00:19:45;7.99;77.56
85830;DHT22;76277;49.212;16.680;2024-02-15T00:22:30;7.99;77.56
85830;DHT22;76277;49.212;16.680;2024-02-15T00:25:15;8.01;77.57
85830;DHT22;76277;49.212;16.680;2024-02-15T00:27:59;8.01;77.57
85830;DHT22;76277;49.212;16.680;2024-02-15T00:30:44;8.01;77.57
85830;DHT22;76277;49.212;16.680;2024-02-15T00:33:29;8.01;77.57
85830;DHT22;76277;49.212;16.680;2024-02-15T00:36:13;8.01;77.57
85830;DHT22;76277;49.212;16.680;2024-02-15T00:38:58;8.01;78.03
85830;DHT22;76277;49.212;16.680;2024-02-15T00:41:43;8.01;78.03
85830;DHT22;76277;49.212;16.680;2024-02-15T00:44:31;8.01;78.03
85830;DHT22;76277;49.212;16.680;2024-02-15T00:47:12;8.01;78.03
85830;DHT22;76277;49.212;16.680;2024-02-15T00:49:57;8.01;78.03
85830;DHT22;76277;49.212;16.680;2024-02-15T00:52:41;8.01;78.03
85830;DHT22;76277;49.212;16.680;2024-02-15T00:55:26;7.95;78.71
85830;DHT22;76277;49.212;16.680;2024-02-15T00:58:11;7.95;78.71
85830;DHT22;76277;49.212;16.680;2024-02-15T01:00:55;7.95;78.71
85830;DHT22;76277;49.212;16.680;2024-02-15T01:03:40;7.95;78.71
85830;DHT22;76277;49.212;16.680;2024-02-15T01:06:25;7.95;78.71
85830;DHT22;76277;49.212;16.680;2024-02-15T01:09:09;7.86;78.90
85830;DHT22;76277;49.212;16.680;2024-02-15T01:11:54;7.86;78.90
85830;DHT22;76277;49.212;16.680;2024-02-15T01:14:39;7.86;78.90
85830;DHT22;76277;49.212;16.680;2024-02-15T01:17:23;7.86;78.90
85830;DHT22;76277;49.212;16.680;2024-02-15T01:20:09;7.86;78.90
85830;DHT22;76277;49.212;16.680;2024-02-15T01:22:53;7.86;78.90
85830;DHT22;76277;49.212;16.680;2024-02-15T01:25:37;7.89;79.21
85830;DHT22;76277;49.212;16.680;2024-02-15T01:28:22;7.89;79.21
85830;DHT22;76277;49.212;16.680;2024-02-15T01:31:07;7.89;79.21
85830;DHT22;76277;49.212;16.680;2024-02-15T01:33:51;7.89;79.21
85830;DHT22;76277;49.212;16.680;2024-02-15T01:36:36;7.89;79.21
85830;DHT22;76277;49.212;16.680;2024-02-15T01:39:21;7.79;79.08
85830;DHT22;76277;49.212;16.680;2024-02-15T01:42:05;7.79;79.08
85830;DHT22;76277;49.212;16.680;2024-02-15T01:44:50;7.79;79.08
85830;DHT22;76277;49.212;16.680;2024-02-15T01:47:35;7.79;79.08
85830;DHT22;76277;49.212;16.680;2024-02-15T01:50:19;7.79;79.08
85830;DHT22;76277;49.212;16.680;2024-02-15T01:53:04;7.79;79.08
85830;DHT22;76277;49.212;16.680;2024-02-15T01:55:49;7.09;82.42
85830;DHT22;76277;49.212;16.680;2024-02-15T01:58:33;7.09;82.42
85830;DHT22;76277;49.212;16.680;2024-02-15T02:01:18;7.09;82.42
85830;DHT22;76277;49.212;16.680;2024-02-15T02:04:03;7.09;82.42
85830;DHT22;76277;49.212;16.680;2024-02-15T02:06:47;7.09;82.42
85830;DHT22;76277;49.212;16.680;2024-02-15T02:09:33;7.39;81.29
85830;DHT22;76277;49.212;16.680;2024-02-15T02:12:17;7.39;81.29
85830;DHT22;76277;49.212;16.680;2024-02-15T02:15:01;7.39;81.29
85830;DHT22;76277;49.212;16.680;2024-02-15T02:17:48;7.39;81.29
85830;DHT22;76277;49.212;16.680;2024-02-15T02:20:31;7.39;81.29
85830;DHT22;76277;49.212;16.680;2024-02-15T02:23:16;7.39;81.29
85830;DHT22;76277;49.212;16.680;2024-02-15T02:26:00;7.63;81.67
85830;DHT22;76277;49.212;16.680;2024-02-15T02:28:44;7.63;81.67
85830;DHT22;76277;49.212;16.680;2024-02-15T02:31:29;7.63;81.67
85830;DHT22;76277;49.212;16.680;2024-02-15T02:34:14;7.63;81.67
85830;DHT22;76277;49.212;16.680;2024-02-15T02:36:59;7.63;81.67
85830;DHT22;76277;49.212;16.680;2024-02-15T02:39:43;7.90;82.96
85830;DHT22;76277;49.212;16.680;2024-02-15T02:42:28;7.90;82.96
85830;DHT22;76277;49.212;16.680;2024-02-15T02:45:13;7.90;82.96
85830;DHT22;76277;49.212;16.680;2024-02-15T02:47:57;7.90;82.96
85830;DHT22;76277;49.212;16.680;2024-02-15T02:53:27;7.90;82.96
85830;DHT22;76277;49.212;16.680;2024-02-15T02:56:11;8.42;82.22
85830;DHT22;76277;49.212;16.680;2024-02-15T02:58:56;8.42;82.22
85830;DHT22;76277;49.212;16.680;2024-02-15T03:01:40;8.42;82.22
85830;DHT22;76277;49.212;16.680;2024-02-15T03:04:25;8.42;82.22
85830;DHT22;76277;49.212;16.680;2024-02-15T03:07:10;8.42;82.22
85830;DHT22;76277;49.212;16.680;2024-02-15T03:09:55;7.43;81.62
85830;DHT22;76277;49.212;16.680;2024-02-15T03:12:40;7.43;81.62
85830;DHT22;76277;49.212;16.680;2024-02-15T03:15:24;7.43;81.62
85830;DHT22;76277;49.212;16.680;2024-02-15T03:18:09;7.43;81.62
85830;DHT22;76277;49.212;16.680;2024-02-15T03:20:53;7.43;81.62
85830;DHT22;76277;49.212;16.680;2024-02-15T03:23:38;7.43;81.62
85830;DHT22;76277;49.212;16.680;2024-02-15T03:26:29;7.55;81.30
85830;DHT22;76277;49.212;16.680;2024-02-15T03:29:07;7.55;81.30
85830;DHT22;76277;49.212;16.680;2024-02-15T03:31:52;7.55;81.30
85830;DHT22;76277;49.212;16.680;2024-02-15T03:34:36;7.55;81.30
85830;DHT22;76277;49.212;16.680;2024-02-15T03:37:21;7.55;81.30
85830;DHT22;76277;49.212;16.680;2024-02-15T03:42:51;7.16;82.10
85830;DHT22;76277;49.212;16.680;2024-02-15T03:45:35;7.16;82.10
85830;DHT22;76277;49.212;16.680;2024-02-15T03:48:20;7.16;82.10
85830;DHT22;76277;49.212;16.680;2024-02-15T03:51:05;7.16;82.10
85830;DHT22;76277;49.212;16.680;2024-02-15T03:53:49;7.16;82.10
85830;DHT22;76277;49.212;16.680;2024-02-15T03:56:34;7.31;81.89
85830;DHT22;76277;49.212;16.680;2024-02-15T03:59:19;7.31;81.89
85830;DHT22;76277;49.212;16.680;2024-02-15T04:02:03;7.31;81.89
85830;DHT22;76277;49.212;16.680;2024-02-15T04:04:48;7.31;81.89
85830;DHT22;76277;49.212;16.680;2024-02-15T04:07:32;7.31;81.89
85830;DHT22;76277;49.212;16.680;2024-02-15T04:10:18;7.59;81.14
85830;DHT22;76277;49.212;16.680;2024-02-15T04:13:02;7.59;81.14
85830;DHT22;76277;49.212;16.680;2024-02-15T04:15:47;7.59;81.14
85830;DHT22;76277;49.212;16.680;2024-02-15T04:18:31;7.59;81.14
85830;DHT22;76277;49.212;16.680;2024-02-15T04:21:16;7.59;81.14
85830;DHT22;76277;49.212;16.680;2024-02-15T04:24:00;7.59;81.14
85830;DHT22;76277;49.212;16.680;2024-02-15T04:26:45;7.75;80.83
85830;DHT22;76277;49.212;16.680;2024-02-15T04:29:30;7.75;80.83
85830;DHT22;76277;49.212;16.680;2024-02-15T04:32:14;7.75;80.83
85830;DHT22;76277;49.212;16.680;2024-02-15T04:35:00;7.75;80.83
85830;DHT22;76277;49.212;16.680;2024-02-15T04:37:44;7.75;80.83
85830;DHT22;76277;49.212;16.680;2024-02-15T04:40:28;7.90;80.76
85830;DHT22;76277;49.212;16.680;2024-02-15T04:43:13;7.90;80.76
85830;DHT22;76277;49.212;16.680;2024-02-15T04:45:58;7.90;80.76
85830;DHT22;76277;49.212;16.680;2024-02-15T04:48:42;7.90;80.76
85830;DHT22;76277;49.212;16.680;2024-02-15T04:51:27;7.90;80.76
85830;DHT22;76277;49.212;16.680;2024-02-15T04:54:12;7.90;80.76
85830;DHT22;76277;49.212;16.680;2024-02-15T04:56:56;7.48;81.94
85830;DHT22;76277;49.212;16.680;2024-02-15T04:59:41;7.48;81.94
85830;DHT22;76277;49.212;16.680;2024-02-15T05:02:26;7.48;81.94
85830;DHT22;76277;49.212;16.680;2024-02-15T05:05:10;7.48;81.94
85830;DHT22;76277;49.212;16.680;2024-02-15T05:07:55;7.48;81.94
85830;DHT22;76277;49.212;16.680;2024-02-15T05:10:40;7.65;81.37
85830;DHT22;76277;49.212;16.680;2024-02-15T05:13:24;7.65;81.37
85830;DHT22;76277;49.212;16.680;2024-02-15T05:16:09;7.65;81.37
85830;DHT22;76277;49.212;16.680;2024-02-15T05:18:54;7.65;81.37
85830;DHT22;76277;49.212;16.680;2024-02-15T05:21:39;7.65;81.37
85830;DHT22;76277;49.212;16.680;2024-02-15T05:24:23;7.65;81.37
85830;DHT22;76277;49.212;16.680;2024-02-15T05:27:08;7.56;82.15
85830;DHT22;76277;49.212;16.680;2024-02-15T05:29:52;7.56;82.15
85830;DHT22;76277;49.212;16.680;2024-02-15T05:32:37;7.56;82.15
85830;DHT22;76277;49.212;16.680;2024-02-15T05:35:23;7.56;82.15
85830;DHT22;76277;49.212;16.680;2024-02-15T05:38:06;7.56;82.15
85830;DHT22;76277;49.212;16.680;2024-02-15T05:40:51;7.94;82.46
85830;DHT22;76277;49.212;16.680;2024-02-15T05:43:36;7.94;82.46
85830;DHT22;76277;49.212;16.680;2024-02-15T05:46:20;7.94;82.46
85830;DHT22;76277;49.212;16.680;2024-02-15T05:49:05;7.94;82.46
85830;DHT22;76277;49.212;16.680;2024-02-15T05:51:50;7.94;82.46
85830;DHT22;76277;49.212;16.680;2024-02-15T05:54:34;7.94;82.46
85830;DHT22;76277;49.212;16.680;2024-02-15T05:57:19;8.22;84.06
85830;DHT22;76277;49.212;16.680;2024-02-15T06:00:05;8.22;84.06
85830;DHT22;76277;49.212;16.680;2024-02-15T06:02:48;8.22;84.06
85830;DHT22;76277;49.212;16.680;2024-02-15T06:05:33;8.22;84.06
85830;DHT22;76277;49.212;16.680;2024-02-15T06:08:18;8.22;84.06
85830;DHT22;76277;49.212;16.680;2024-02-15T06:11:03;8.17;87.99
85830;DHT22;76277;49.212;16.680;2024-02-15T06:13:47;8.17;87.99
85830;DHT22;76277;49.212;16.680;2024-02-15T06:16:32;8.17;87.99
85830;DHT22;76277;49.212;16.680;2024-02-15T06:19:16;8.17;87.99
85830;DHT22;76277;49.212;16.680;2024-02-15T06:22:01;8.17;87.99
85830;DHT22;76277;49.212;16.680;2024-02-15T06:24:46;8.17;87.99
85830;DHT22;76277;49.212;16.680;2024-02-15T06:27:30;7.86;86.27
85830;DHT22;76277;49.212;16.680;2024-02-15T06:30:15;7.86;86.27
85830;DHT22;76277;49.212;16.680;2024-02-15T06:33:00;7.86;86.27
85830;DHT22;76277;49.212;16.680;2024-02-15T06:35:44;7.86;86.27
85830;DHT22;76277;49.212;16.680;2024-02-15T06:38:29;7.86;86.27
85830;DHT22;76277;49.212;16.680;2024-02-15T06:41:14;7.89;85.66
85830;DHT22;76277;49.212;16.680;2024-02-15T06:43:58;7.89;85.66
85830;DHT22;76277;49.212;16.680;2024-02-15T06:46:43;7.89;85.66
85830;DHT22;76277;49.212;16.680;2024-02-15T06:49:28;7.89;85.66
85830;DHT22;76277;49.212;16.680;2024-02-15T06:52:12;7.89;85.66
85830;DHT22;76277;49.212;16.680;2024-02-15T06:54:57;7.89;85.66
85830;DHT22;76277;49.212;16.680;2024-02-15T06:57:42;7.90;86.02
85830;DHT22;76277;49.212;16.680;2024-02-15T07:00:26;7.90;86.02
85830;DHT22;76277;49.212;16.680;2024-02-15T07:03:11;7.90;86.02
85830;DHT22;76277;49.212;16.680;2024-02-15T07:05:56;7.90;86.02
85830;DHT22;76277;49.212;16.680;2024-02-15T07:08:40;7.90;86.02
85830;DHT22;76277;49.212;16.680;2024-02-15T07:11:26;8.10;85.68
85830;DHT22;76277;49.212;16.680;2024-02-15T07:14:10;8.10;85.68
85830;DHT22;76277;49.212;16.680;2024-02-15T07:16:54;8.10;85.68
85830;DHT22;76277;49.212;16.680;2024-02-15T07:19:42;8.10;85.68
85830;DHT22;76277;49.212;16.680;2024-02-15T07:22:24;8.10;85.68
85830;DHT22;76277;49.212;16.680;2024-02-15T07:25:08;8.10;85.68
85830;DHT22;76277;49.212;16.680;2024-02-15T07:27:53;8.33;85.50
85830;DHT22;76277;49.212;16.680;2024-02-15T07:30:37;8.33;85.50
85830;DHT22;76277;49.212;16.680;2024-02-15T07:33:22;8.33;85.50
85830;DHT22;76277;49.212;16.680;2024-02-15T07:36:07;8.33;85.50
85830;DHT22;76277;49.212;16.680;2024-02-15T07:38:52;8.33;85.50
85830;DHT22;76277;49.212;16.680;2024-02-15T07:41:36;8.30;84.52
85830;DHT22;76277;49.212;16.680;2024-02-15T07:44:23;8.30;84.52
85830;DHT22;76277;49.212;16.680;2024-02-15T07:47:05;8.30;84.52
85830;DHT22;76277;49.212;16.680;2024-02-15T07:49:50;8.30;84.52
85830;DHT22;76277;49.212;16.680;2024-02-15T07:52:35;8.30;84.52
85830;DHT22;76277;49.212;16.680;2024-02-15T07:55:19;8.30;84.52
85830;DHT22;76277;49.212;16.680;2024-02-15T07:58:04;8.49;84.01
85830;DHT22;76277;49.212;16.680;2024-02-15T08:00:49;8.49;84.01
85830;DHT22;76277;49.212;16.680;2024-02-15T08:03:33;8.49;84.01
85830;DHT22;76277;49.212;16.680;2024-02-15T08:06:18;8.49;84.01
85830;DHT22;76277;49.212;16.680;2024-02-15T08:09:03;8.49;84.01
85830;DHT22;76277;49.212;16.680;2024-02-15T08:11:48;8.85;83.72
85830;DHT22;76277;49.212;16.680;2024-02-15T08:14:32;8.85;83.72
85830;DHT22;76277;49.212;16.680;2024-02-15T08:17:17;8.85;83.72
85830;DHT22;76277;49.212;16.680;2024-02-15T08:20:02;8.85;83.72
85830;DHT22;76277;49.212;16.680;2024-02-15T08:22:46;8.85;83.72
85830;DHT22;76277;49.212;16.680;2024-02-15T08:25:31;8.85;83.72
85830;DHT22;76277;49.212;16.680;2024-02-15T08:28:16;9.22;82.25
85830;DHT22;76277;49.212;16.680;2024-02-15T08:31:00;9.22;82.25
85830;DHT22;76277;49.212;16.680;2024-02-15T08:33:45;9.22;82.25
85830;DHT22;76277;49.212;16.680;2024-02-15T08:36:30;9.22;82.25
85830;DHT22;76277;49.212;16.680;2024-02-15T08:39:14;9.22;82.25
85830;DHT22;76277;49.212;16.680;2024-02-15T08:41:59;9.58;80.83
85830;DHT22;76277;49.212;16.680;2024-02-15T08:44:44;9.58;80.83
85830;DHT22;76277;49.212;16.680;2024-02-15T08:47:28;9.58;80.83
85830;DHT22;76277;49.212;16.680;2024-02-15T08:50:13;9.58;80.83
85830;DHT22;76277;49.212;16.680;2024-02-15T08:52:58;9.58;80.83
85830;DHT22;76277;49.212;16.680;2024-02-15T08:55:42;9.39;85.80
85830;DHT22;76277;49.212;16.680;2024-02-15T08:58:27;9.39;85.80
85830;DHT22;76277;49.212;16.680;2024-02-15T09:01:12;9.39;85.80
85830;DHT22;76277;49.212;16.680;2024-02-15T09:03:57;9.39;85.80
85830;DHT22;76277;49.212;16.680;2024-02-15T09:06:41;9.39;85.80
85830;DHT22;76277;49.212;16.680;2024-02-15T09:09:25;9.39;85.80
85830;DHT22;76277;49.212;16.680;2024-02-15T09:12:10;10.14;84.89
85830;DHT22;76277;49.212;16.680;2024-02-15T09:14:55;10.14;84.89
85830;DHT22;76277;49.212;16.680;2024-02-15T09:17:40;10.14;84.89
85830;DHT22;76277;49.212;16.680;2024-02-15T09:20:24;10.14;84.89
85830;DHT22;76277;49.212;16.680;2024-02-15T09:23:09;10.14;84.89
85830;DHT22;76277;49.212;16.680;2024-02-15T09:25:53;9.26;88.36
85830;DHT22;76277;49.212;16.680;2024-02-15T09:28:39;9.26;88.36
85830;DHT22;76277;49.212;16.680;2024-02-15T09:31:23;9.26;88.36
85830;DHT22;76277;49.212;16.680;2024-02-15T09:34:07;9.26;88.36
85830;DHT22;76277;49.212;16.680;2024-02-15T09:36:52;9.26;88.36
85830;DHT22;76277;49.212;16.680;2024-02-15T09:39:37;9.26;88.36
85830;DHT22;76277;49.212;16.680;2024-02-15T09:42:21;9.40;87.87
85830;DHT22;76277;49.212;16.680;2024-02-15T09:47:51;9.40;87.87
85830;DHT22;76277;49.212;16.680;2024-02-15T09:50:35;9.40;87.87
85830;DHT22;76277;49.212;16.680;2024-02-15T09:53:21;9.40;87.87
85830;DHT22;76277;49.212;16.680;2024-02-15T09:56:05;10.65;83.17
85830;DHT22;76277;49.212;16.680;2024-02-15T09:58:50;10.65;83.17
85830;DHT22;76277;49.212;16.680;2024-02-15T10:01:34;10.65;83.17
85830;DHT22;76277;49.212;16.680;2024-02-15T10:04:19;10.65;83.17
85830;DHT22;76277;49.212;16.680;2024-02-15T10:07:03;10.65;83.17
85830;DHT22;76277;49.212;16.680;2024-02-15T10:09:48;10.65;83.17
85830;DHT22;76277;49.212;16.680;2024-02-15T10:12:37;10.73;81.98
85830;DHT22;76277;49.212;16.680;2024-02-15T10:18:03;10.73;81.98
85830;DHT22;76277;49.212;16.680;2024-02-15T10:20:47;10.73;81.98
85830;DHT22;76277;49.212;16.680;2024-02-15T10:23:31;10.73;81.98
85830;DHT22;76277;49.212;16.680;2024-02-15T10:26:19;10.40;82.78
85830;DHT22;76277;49.212;16.680;2024-02-15T10:29:08;10.40;82.78
85830;DHT22;76277;49.212;16.680;2024-02-15T10:31:55;10.40;82.78
85830;DHT22;76277;49.212;16.680;2024-02-15T10:34:31;10.40;82.78
85830;DHT22;76277;49.212;16.680;2024-02-15T10:37:15;10.40;82.78
85830;DHT22;76277;49.212;16.680;2024-02-15T10:40:04;10.40;82.78
85830;DHT22;76277;49.212;16.680;2024-02-15T10:42:44;10.47;82.36
85830;DHT22;76277;49.212;16.680;2024-02-15T10:45:29;10.47;82.36
85830;DHT22;76277;49.212;16.680;2024-02-15T10:48:13;10.47;82.36
85830;DHT22;76277;49.212;16.680;2024-02-15T10:50:59;10.47;82.36
85830;DHT22;76277;49.212;16.680;2024-02-15T10:53:46;10.47;82.36
85830;DHT22;76277;49.212;16.680;2024-02-15T10:56:28;10.01;83.27
85830;DHT22;76277;49.212;16.680;2024-02-15T10:59:16;10.01;83.27
85830;DHT22;76277;49.212;16.680;2024-02-15T11:01:58;10.01;83.27
85830;DHT22;76277;49.212;16.680;2024-02-15T11:04:41;10.01;83.27
85830;DHT22;76277;49.212;16.680;2024-02-15T11:07:26;10.01;83.27
85830;DHT22;76277;49.212;16.680;2024-02-15T11:10:11;10.01;83.27
85830;DHT22;76277;49.212;16.680;2024-02-15T11:12:55;10.18;83.41
85830;DHT22;76277;49.212;16.680;2024-02-15T11:15:41;10.18;83.41
85830;DHT22;76277;49.212;16.680;2024-02-15T11:21:10;10.18;83.41
85830;DHT22;76277;49.212;16.680;2024-02-15T11:23:54;10.18;83.41
85830;DHT22;76277;49.212;16.680;2024-02-15T11:26:42;10.06;85.07
85830;DHT22;76277;49.212;16.680;2024-02-15T11:32:08;10.06;85.07
85830;DHT22;76277;49.212;16.680;2024-02-15T11:34:53;10.06;85.07
85830;DHT22;76277;49.212;16.680;2024-02-15T11:40:22;10.06;85.07
85830;DHT22;76277;49.212;16.680;2024-02-15T11:43:07;11.01;82.54
85830;DHT22;76277;49.212;16.680;2024-02-15T11:45:57;11.01;82.54
85830;DHT22;76277;49.212;16.680;2024-02-15T11:48:36;11.01;82.54
85830;DHT22;76277;49.212;16.680;2024-02-15T11:51:29;11.01;82.54
85830;DHT22;76277;49.212;16.680;2024-02-15T11:54:06;11.01;82.54
85830;DHT22;76277;49.212;16.680;2024-02-15T11:56:51;11.70;80.96
85830;DHT22;76277;49.212;16.680;2024-02-15T11:59:42;11.70;80.96
85830;DHT22;76277;49.212;16.680;2024-02-15T12:02:19;11.70;80.96
85830;DHT22;76277;49.212;16.680;2024-02-15T12:05:05;11.70;80.96
85830;DHT22;76277;49.212;16.680;2024-02-15T12:07:49;11.70;80.96
85830;DHT22;76277;49.212;16.680;2024-02-15T12:10:33;11.70;80.96
85830;DHT22;76277;49.212;16.680;2024-02-15T12:13:18;11.94;79.35
85830;DHT22;76277;49.212;16.680;2024-02-15T12:16:03;11.94;79.35
85830;DHT22;76277;49.212;16.680;2024-02-15T12:18:48;11.94;79.35
85830;DHT22;76277;49.212;16.680;2024-02-15T12:21:32;11.94;79.35
85830;DHT22;76277;49.212;16.680;2024-02-15T12:24:16;11.94;79.35
85830;DHT22;76277;49.212;16.680;2024-02-15T12:27:01;12.40;77.99
85830;DHT22;76277;49.212;16.680;2024-02-15T12:29:46;12.40;77.99
85830;DHT22;76277;49.212;16.680;2024-02-15T12:32:31;12.40;77.99
85830;DHT22;76277;49.212;16.680;2024-02-15T12:35:16;12.40;77.99
85830;DHT22;76277;49.212;16.680;2024-02-15T12:38:01;12.40;77.99
85830;DHT22;76277;49.212;16.680;2024-02-15T12:40:45;12.40;77.99
85830;DHT22;76277;49.212;16.680;2024-02-15T12:43:29;11.79;79.68
85830;DHT22;76277;49.212;16.680;2024-02-15T12:46:17;11.79;79.68
85830;DHT22;76277;49.212;16.680;2024-02-15T12:51:50;11.79;79.68
85830;DHT22;76277;49.212;16.680;2024-02-15T12:54:28;11.79;79.68
85830;DHT22;76277;49.212;16.680;2024-02-15T12:57:12;12.51;77.60
85830;DHT22;76277;49.212;16.680;2024-02-15T12:59:57;12.51;77.60
85830;DHT22;76277;49.212;16.680;2024-02-15T13:02:42;12.51;77.60
85830;DHT22;76277;49.212;16.680;2024-02-15T13:05:27;12.51;77.60
85830;DHT22;76277;49.212;16.680;2024-02-15T13:08:11;12.51;77.60
85830;DHT22;76277;49.212;16.680;2024-02-15T13:10:56;12.51;77.60
85830;DHT22;76277;49.212;16.680;2024-02-15T13:13:40;12.06;79.46
85830;DHT22;76277;49.212;16.680;2024-02-15T13:16:25;12.06;79.46
85830;DHT22;76277;49.212;16.680;2024-02-15T13:19:10;12.06;79.46
85830;DHT22;76277;49.212;16.680;2024-02-15T13:21:55;12.06;79.46
85830;DHT22;76277;49.212;16.680;2024-02-15T13:24:39;12.06;79.46
85830;DHT22;76277;49.212;16.680;2024-02-15T13:27:24;12.23;79.15
85830;DHT22;76277;49.212;16.680;2024-02-15T13:30:09;12.23;79.15
85830;DHT22;76277;49.212;16.680;2024-02-15T13:32:53;12.23;79.15
85830;DHT22;76277;49.212;16.680;2024-02-15T13:35:38;12.23;79.15
85830;DHT22;76277;49.212;16.680;2024-02-15T13:38:22;12.23;79.15
85830;DHT22;76277;49.212;16.680;2024-02-15T13:41:07;12.23;79.15
85830;DHT22;76277;49.212;16.680;2024-02-15T13:43:53;11.61;80.78
85830;DHT22;76277;49.212;16.680;2024-02-15T13:46:37;11.61;80.78
85830;DHT22;76277;49.212;16.680;2024-02-15T13:49:21;11.61;80.78
85830;DHT22;76277;49.212;16.680;2024-02-15T13:52:07;11.61;80.78
85830;DHT22;76277;49.212;16.680;2024-02-15T13:54:54;11.61;80.78
85830;DHT22;76277;49.212;16.680;2024-02-15T13:57:35;10.88;83.50
85830;DHT22;76277;49.212;16.680;2024-02-15T14:00:20;10.88;83.50
85830;DHT22;76277;49.212;16.680;2024-02-15T14:03:04;10.88;83.50
85830;DHT22;76277;49.212;16.680;2024-02-15T14:05:49;10.88;83.50
85830;DHT22;76277;49.212;16.680;2024-02-15T14:08:34;10.88;83.50
85830;DHT22;76277;49.212;16.680;2024-02-15T14:11:18;10.88;83.50
85830;DHT22;76277;49.212;16.680;2024-02-15T14:14:03;10.75;84.37
85830;DHT22;76277;49.212;16.680;2024-02-15T14:16:48;10.75;84.37
85830;DHT22;76277;49.212;16.680;2024-02-15T14:19:32;10.75;84.37
85830;DHT22;76277;49.212;16.680;2024-02-15T14:22:17;10.75;84.37
85830;DHT22;76277;49.212;16.680;2024-02-15T14:25:02;10.75;84.37
85830;DHT22;76277;49.212;16.680;2024-02-15T14:27:46;10.34;85.75
85830;DHT22;76277;49.212;16.680;2024-02-15T14:30:31;10.34;85.75
85830;DHT22;76277;49.212;16.680;2024-02-15T14:33:16;10.34;85.75
85830;DHT22;76277;49.212;16.680;2024-02-15T14:36:00;10.34;85.75
85830;DHT22;76277;49.212;16.680;2024-02-15T14:38:45;10.34;85.75
85830;DHT22;76277;49.212;16.680;2024-02-15T14:41:30;10.34;85.75
85830;DHT22;76277;49.212;16.680;2024-02-15T14:44:15;10.32;86.40
85830;DHT22;76277;49.212;16.680;2024-02-15T14:46:59;10.32;86.40
85830;DHT22;76277;49.212;16.680;2024-02-15T14:49:44;10.32;86.40
85830;DHT22;76277;49.212;16.680;2024-02-15T14:52:28;10.32;86.40
85830;DHT22;76277;49.212;16.680;2024-02-15T14:55:13;10.32;86.40
85830;DHT22;76277;49.212;16.680;2024-02-15T14:57:58;10.05;88.27
85830;DHT22;76277;49.212;16.680;2024-02-15T15:00:42;10.05;88.27
85830;DHT22;76277;49.212;16.680;2024-02-15T15:03:30;10.05;88.27
85830;DHT22;76277;49.212;16.680;2024-02-15T15:06:12;10.05;88.27
85830;DHT22;76277;49.212;16.680;2024-02-15T15:08:56;10.05;88.27
85830;DHT22;76277;49.212;16.680;2024-02-15T15:11:41;10.05;88.27
85830;DHT22;76277;49.212;16.680;2024-02-15T15:14:26;9.74;89.01
85830;DHT22;76277;49.212;16.680;2024-02-15T15:17:10;9.74;89.01
85830;DHT22;76277;49.212;16.680;2024-02-15T15:19:55;9.74;89.01
85830;DHT22;76277;49.212;16.680;2024-02-15T15:22:40;9.74;89.01
85830;DHT22;76277;49.212;16.680;2024-02-15T15:25:24;9.74;89.01
85830;DHT22;76277;49.212;16.680;2024-02-15T15:28:09;9.67;89.50
85830;DHT22;76277;49.212;16.680;2024-02-15T15:30:54;9.67;89.50
85830;DHT22;76277;49.212;16.680;2024-02-15T15:33:38;9.67;89.50
85830;DHT22;76277;49.212;16.680;2024-02-15T15:36:23;9.67;89.50
85830;DHT22;76277;49.212;16.680;2024-02-15T15:39:08;9.67;89.50
85830;DHT22;76277;49.212;16.680;2024-02-15T15:41:52;9.67;89.50
85830;DHT22;76277;49.212;16.680;2024-02-15T15:47:22;9.42;90.65
85830;DHT22;76277;49.212;16.680;2024-02-15T15:50:07;9.42;90.65
85830;DHT22;76277;49.212;16.680;2024-02-15T15:52:51;9.42;90.65
85830;DHT22;76277;49.212;16.680;2024-02-15T15:55:36;9.42;90.65
85830;DHT22;76277;49.212;16.680;2024-02-15T15:58:21;9.29;91.24
85830;DHT22;76277;49.212;16.680;2024-02-15T16:01:05;9.29;91.24
85830;DHT22;76277;49.212;16.680;2024-02-15T16:03:50;9.29;91.24
85830;DHT22;76277;49.212;16.680;2024-02-15T16:06:34;9.29;91.24
85830;DHT22;76277;49.212;16.680;2024-02-15T16:09:19;9.29;91.24
85830;DHT22;76277;49.212;16.680;2024-02-15T16:12:04;9.29;91.24
85830;DHT22;76277;49.212;16.680;2024-02-15T16:14:49;9.12;91.86
85830;DHT22;76277;49.212;16.680;2024-02-15T16:17:33;9.12;91.86
85830;DHT22;76277;49.212;16.680;2024-02-15T16:20:18;9.12;91.86
85830;DHT22;76277;49.212;16.680;2024-02-15T16:23:03;9.12;91.86
85830;DHT22;76277;49.212;16.680;2024-02-15T16:25:47;9.12;91.86
85830;DHT22;76277;49.212;16.680;2024-02-15T16:28:32;9.14;92.01
85830;DHT22;76277;49.212;16.680;2024-02-15T16:31:18;9.14;92.01
85830;DHT22;76277;49.212;16.680;2024-02-15T16:34:01;9.14;92.01
85830;DHT22;76277;49.212;16.680;2024-02-15T16:36:46;9.14;92.01
85830;DHT22;76277;49.212;16.680;2024-02-15T16:39:30;9.14;92.01
85830;DHT22;76277;49.212;16.680;2024-02-15T16:42:15;9.14;92.01
85830;DHT22;76277;49.212;16.680;2024-02-15T16:44:59;9.17;92.18
85830;DHT22;76277;49.212;16.680;2024-02-15T16:47:44;9.17;92.18
85830;DHT22;76277;49.212;16.680;2024-02-15T16:50:29;9.17;92.18
85830;DHT22;76277;49.212;16.680;2024-02-15T16:53:14;9.17;92.18
85830;DHT22;76277;49.212;16.680;2024-02-15T16:55:59;9.17;92.18
85830;DHT22;76277;49.212;16.680;2024-02-15T16:58:43;9.21;92.38
85830;DHT22;76277;49.212;16.680;2024-02-15T17:01:27;9.21;92.38
85830;DHT22;76277;49.212;16.680;2024-02-15T17:04:13;9.21;92.38
85830;DHT22;76277;49.212;16.680;2024-02-15T17:06:57;9.21;92.38
85830;DHT22;76277;49.212;16.680;2024-02-15T17:09:42;9.21;92.38
85830;DHT22;76277;49.212;16.680;2024-02-15T17:12:26;9.21;92.38
85830;DHT22;76277;49.212;16.680;2024-02-15T17:15:11;9.10;92.91
85830;DHT22;76277;49.212;16.680;2024-02-15T17:17:56;9.10;92.91
85830;DHT22;76277;49.212;16.680;2024-02-15T17:20:40;9.10;92.91
85830;DHT22;76277;49.212;16.680;2024-02-15T17:23:25;9.10;92.91
85830;DHT22;76277;49.212;16.680;2024-02-15T17:26:09;9.10;92.91
85830;DHT22;76277;49.212;16.680;2024-02-15T17:28:54;8.95;93.88
85830;DHT22;76277;49.212;16.680;2024-02-15T17:31:39;8.95;93.88
85830;DHT22;76277;49.212;16.680;2024-02-15T17:34:24;8.95;93.88
85830;DHT22;76277;49.212;16.680;2024-02-15T17:37:08;8.95;93.88
85830;DHT22;76277;49.212;16.680;2024-02-15T17:39:53;8.95;93.88